Time;durP1;ratioP1;P1;durP2;ratioP2;P2;SDS_P1;SDS_P2;PMS_P1;PMS_P2;Temp;Humidity;BMP_temperature;BMP_pressure;BME280_temperature;BME280_humidity;BME280_pressure;Samples;Min_cycle;Max_cycle;Signal;HPM_P1;HPM_P2
2021/06/11 00:02:10;;;;;;;12.03;5.37;;;18.40;99.90;;;;;;5056528;28;20192;-74
2021/06/11 00:04:36;;;;;;;11.20;5.60;;;18.60;99.90;;;;;;5056381;28;20789;-73
2021/06/11 00:07:03;;;;;;;7.33;5.70;;;18.80;99.90;;;;;;5054381;28;21088;-75
2021/06/11 00:09:29;;;;;;;12.77;5.73;;;18.70;99.90;;;;;;5057283;28;20684;-74
2021/06/11 00:11:55;;;;;;;15.73;6.07;;;18.60;99.90;;;;;;5057523;28;20663;-75
2021/06/11 00:14:22;;;;;;;11.73;5.50;;;18.80;99.90;;;;;;5061627;28;20227;-74
2021/06/11 00:16:48;;;;;;;14.07;5.50;;;18.60;99.90;;;;;;5047480;28;20659;-74
2021/06/11 00:19:14;;;;;;;10.40;5.97;;;18.80;99.90;;;;;;5062770;28;20243;-74
2021/06/11 00:21:40;;;;;;;10.43;5.77;;;18.70;99.90;;;;;;5050329;28;20221;-74
2021/06/11 00:24:07;;;;;;;12.13;5.50;;;18.80;99.90;;;;;;5063582;28;21005;-75
2021/06/11 00:26:33;;;;;;;10.93;5.70;;;18.60;99.90;;;;;;5063039;28;20252;-75
2021/06/11 00:29:00;;;;;;;10.87;5.30;;;18.50;99.90;;;;;;5059682;28;20318;-75
2021/06/11 00:31:26;;;;;;;10.90;5.40;;;18.50;99.90;;;;;;5059809;28;20246;-74
2021/06/11 00:33:52;;;;;;;11.20;5.20;;;18.60;99.90;;;;;;5062400;28;20248;-74
2021/06/11 00:36:18;;;;;;;19.00;6.43;;;18.40;99.90;;;;;;5062288;28;20314;-74
2021/06/11 00:38:45;;;;;;;10.60;5.40;;;18.40;99.90;;;;;;5064648;28;20207;-75
2021/06/11 00:41:11;;;;;;;8.87;5.30;;;18.40;99.90;;;;;;5065003;28;20626;-75
2021/06/11 00:43:37;;;;;;;12.63;5.73;;;18.30;99.90;;;;;;5043448;28;20219;-75
2021/06/11 00:46:04;;;;;;;13.40;5.73;;;18.30;99.90;;;;;;5063999;28;20344;-75
2021/06/11 00:48:31;;;;;;;12.57;5.93;;;18.60;99.90;;;;;;5061992;28;20188;-75
2021/06/11 00:50:57;;;;;;;11.53;5.50;;;18.60;99.90;;;;;;5044861;28;20187;-75
2021/06/11 00:53:24;;;;;;;15.47;5.80;;;18.60;99.90;;;;;;5060051;28;20196;-75
2021/06/11 00:55:50;;;;;;;12.50;6.10;;;18.70;99.90;;;;;;5059238;28;20195;-75
2021/06/11 00:58:18;;;;;;;9.73;5.20;;;18.40;99.90;;;;;;5060951;28;20335;-74
2021/06/11 01:00:47;;;;;;;10.33;5.80;;;18.40;99.90;;;;;;5059222;28;20346;-74
2021/06/11 01:03:15;;;;;;;9.93;5.93;;;18.60;99.90;;;;;;5047863;28;20208;-73
2021/06/11 01:05:42;;;;;;;12.67;6.20;;;18.70;99.90;;;;;;5059470;28;20207;-74
2021/06/11 01:08:12;;;;;;;12.40;5.80;;;18.70;99.90;;;;;;5065301;28;20313;-74
2021/06/11 01:10:39;;;;;;;13.30;5.70;;;18.70;99.90;;;;;;5056015;28;20285;-73
2021/06/11 01:13:07;;;;;;;12.77;5.23;;;18.70;99.90;;;;;;5060431;28;20217;-74
2021/06/11 01:15:35;;;;;;;14.70;6.27;;;18.50;99.90;;;;;;5054446;28;20198;-74
2021/06/11 01:18:01;;;;;;;11.30;6.13;;;18.50;99.90;;;;;;5060128;28;20191;-74
2021/06/11 01:20:28;;;;;;;15.40;5.70;;;18.60;99.90;;;;;;5064330;28;20620;-75
2021/06/11 01:23:22;;;;;;;11.17;5.70;;;18.40;99.90;;;;;;5059700;28;20184;-74
2021/06/11 01:26:29;;;;;;;15.37;5.93;;;18.40;99.90;;;;;;5061434;28;20249;-74
2021/06/11 01:29:04;;;;;;;14.13;5.77;;;18.60;99.90;;;;;;5061109;28;20198;-75
2021/06/11 01:31:34;;;;;;;12.33;5.40;;;18.50;99.90;;;;;;5063044;28;20237;-74
2021/06/11 01:34:10;;;;;;;10.63;5.60;;;18.50;99.90;;;;;;5058062;28;20249;-75
2021/06/11 01:37:09;;;;;;;13.17;5.87;;;18.30;99.90;;;;;;5062156;28;20615;-75
2021/06/11 01:39:39;;;;;;;8.60;5.37;;;18.50;99.90;;;;;;5047634;28;20237;-75
2021/06/11 01:42:08;;;;;;;12.30;5.07;;;18.60;99.90;;;;;;5062371;28;20195;-75
2021/06/11 01:44:38;;;;;;;12.97;5.80;;;18.60;99.90;;;;;;5041218;28;20198;-72
2021/06/11 01:47:07;;;;;;;13.70;5.57;;;18.70;99.90;;;;;;5086517;28;20731;-74
2021/06/11 01:49:34;;;;;;;11.03;5.13;;;18.80;99.90;;;;;;5060399;28;20187;-73
2021/06/11 01:52:05;;;;;;;8.40;5.47;;;18.70;99.90;;;;;;5061889;28;20195;-73
2021/06/11 01:54:32;;;;;;;10.83;5.17;;;18.50;99.90;;;;;;5064358;28;20206;-73
2021/06/11 01:57:01;;;;;;;11.03;5.13;;;18.40;99.90;;;;;;5059594;28;20187;-73
2021/06/11 01:59:28;;;;;;;12.33;5.37;;;18.40;99.90;;;;;;5056955;28;20242;-73
2021/06/11 02:01:57;;;;;;;8.63;5.30;;;18.40;99.90;;;;;;5060896;28;20184;-73
2021/06/11 02:04:24;;;;;;;12.73;5.93;;;18.30;99.90;;;;;;5046752;28;20195;-74
2021/06/11 02:06:52;;;;;;;15.23;6.03;;;18.30;99.90;;;;;;5059040;28;20187;-73
2021/06/11 02:09:20;;;;;;;13.07;5.60;;;18.40;99.90;;;;;;5056635;28;21040;-73
2021/06/11 02:11:47;;;;;;;12.33;5.70;;;18.50;99.90;;;;;;5062188;28;20201;-73
2021/06/11 02:14:16;;;;;;;10.87;5.73;;;18.50;99.90;;;;;;5058635;28;20229;-73
2021/06/11 02:16:45;;;;;;;13.53;6.60;;;18.50;99.90;;;;;;5057828;28;20240;-73
2021/06/11 02:19:13;;;;;;;15.57;6.13;;;18.50;99.90;;;;;;5058741;28;20285;-73
2021/06/11 02:21:41;;;;;;;12.90;6.27;;;18.50;99.90;;;;;;5057330;28;20259;-73
2021/06/11 02:24:08;;;;;;;15.67;6.67;;;18.50;99.90;;;;;;5058624;28;20180;-72
2021/06/11 02:26:39;;;;;;;15.07;6.50;;;18.60;99.90;;;;;;5060332;28;20574;-73
2021/06/11 02:29:06;;;;;;;10.27;6.00;;;18.60;99.90;;;;;;5058823;28;20191;-72
2021/06/11 02:31:33;;;;;;;15.27;5.80;;;18.60;99.90;;;;;;5055008;28;20191;-73
2021/06/11 02:34:00;;;;;;;13.37;5.87;;;18.70;99.90;;;;;;5061994;28;20188;-74
2021/06/11 02:36:27;;;;;;;11.77;4.67;;;18.70;99.90;;;;;;5060401;28;20232;-74
2021/06/11 02:38:54;;;;;;;12.73;5.60;;;18.60;99.90;;;;;;5041316;28;20210;-74
2021/06/11 02:41:26;;;;;;;14.33;6.03;;;18.60;99.90;;;;;;5058040;28;20233;-74
2021/06/11 02:43:54;;;;;;;9.60;5.43;;;18.60;99.90;;;;;;5062521;28;20194;-74
2021/06/11 02:46:36;;;;;;;12.20;5.60;;;18.50;99.90;;;;;;5064257;28;20194;-75
2021/06/11 02:49:21;;;;;;;12.17;6.37;;;18.50;99.90;;;;;;5060475;28;20972;-75
2021/06/11 02:51:51;;;;;;;10.93;5.93;;;18.70;99.90;;;;;;5062196;28;20309;-75
2021/06/11 02:54:28;;;;;;;11.03;5.90;;;18.70;99.90;;;;;;5058295;28;20179;-75
2021/06/11 02:57:29;;;;;;;15.07;6.33;;;18.70;99.90;;;;;;5063471;28;20187;-75
2021/06/11 03:00:10;;;;;;;10.87;5.97;;;18.80;99.90;;;;;;5057025;28;20624;-74
2021/06/11 03:03:04;;;;;;;9.83;6.10;;;18.80;99.90;;;;;;5061786;28;20183;-74
2021/06/11 03:05:32;;;;;;;12.83;6.17;;;18.70;99.90;;;;;;5045828;28;20209;-74
2021/06/11 03:08:04;;;;;;;14.03;6.20;;;18.80;99.90;;;;;;5044371;28;20190;-74
2021/06/11 03:10:31;;;;;;;16.37;6.73;;;18.60;99.90;;;;;;5043718;28;20576;-74
2021/06/11 03:13:03;;;;;;;8.77;6.23;;;18.50;99.90;;;;;;5059959;28;20835;-73
2021/06/11 03:15:33;;;;;;;15.00;6.33;;;18.50;99.90;;;;;;5045533;28;20309;-73
2021/06/11 03:18:08;;;;;;;10.23;6.30;;;18.50;99.90;;;;;;5063468;28;20197;-73
2021/06/11 03:20:40;;;;;;;9.53;6.23;;;18.50;99.90;;;;;;5055713;28;20239;-73
2021/06/11 03:23:17;;;;;;;15.57;7.03;;;18.50;99.90;;;;;;5058724;28;20803;-73
2021/06/11 03:25:56;;;;;;;13.13;6.77;;;18.60;99.90;;;;;;5059943;28;20198;-74
2021/06/11 03:28:33;;;;;;;12.93;7.10;;;18.60;99.90;;;;;;5061142;28;20282;-73
2021/06/11 03:31:03;;;;;;;12.57;7.10;;;18.60;99.90;;;;;;5062774;28;20650;-74
2021/06/11 03:33:38;;;;;;;13.60;6.43;;;18.70;99.90;;;;;;5057948;28;20191;-72
2021/06/11 03:36:18;;;;;;;13.27;6.80;;;18.80;99.90;;;;;;5058078;28;20580;-74
2021/06/11 03:38:52;;;;;;;11.83;6.80;;;18.70;99.90;;;;;;5061882;28;20199;-74
2021/06/11 03:41:20;;;;;;;13.83;7.30;;;18.80;99.90;;;;;;5062865;28;20233;-73
2021/06/11 03:43:49;;;;;;;8.03;6.47;;;18.90;99.90;;;;;;5060358;28;20187;-75
2021/06/11 03:46:18;;;;;;;10.57;6.60;;;18.90;99.90;;;;;;5061560;28;20325;-74
2021/06/11 03:48:52;;;;;;;18.60;7.13;;;19.00;99.90;;;;;;5061791;28;20594;-75
2021/06/11 03:51:21;;;;;;;19.87;6.40;;;19.00;99.90;;;;;;5063955;28;20237;-73
2021/06/11 03:53:49;;;;;;;11.00;6.77;;;19.10;99.90;;;;;;5066599;28;20191;-72
2021/06/11 03:56:19;;;;;;;15.20;7.37;;;19.30;99.90;;;;;;5065229;28;20183;-74
2021/06/11 03:58:49;;;;;;;12.97;6.60;;;19.20;99.90;;;;;;5063865;28;20282;-72
2021/06/11 04:01:27;;;;;;;18.03;7.23;;;19.20;99.90;;;;;;5063291;28;20246;-72
2021/06/11 04:03:54;;;;;;;14.53;7.67;;;19.10;99.90;;;;;;5065354;28;20210;-73
2021/06/11 04:06:30;;;;;;;15.30;7.20;;;19.20;99.90;;;;;;5063224;28;20244;-73
2021/06/11 04:09:08;;;;;;;14.97;7.37;;;19.20;99.90;;;;;;5062996;28;20187;-73
2021/06/11 04:11:45;;;;;;;12.43;6.87;;;19.30;99.90;;;;;;5060859;28;21340;-73
2021/06/11 04:14:23;;;;;;;16.00;7.57;;;19.40;99.90;;;;;;5063981;28;20206;-73
2021/06/11 04:16:53;;;;;;;12.60;6.67;;;19.50;99.90;;;;;;5064047;28;20191;-72
2021/06/11 04:19:37;;;;;;;14.33;6.90;;;19.70;99.90;;;;;;5060595;28;20290;-71
2021/06/11 04:22:05;;;;;;;18.23;7.27;;;19.80;99.90;;;;;;5060898;28;20256;-72
2021/06/11 04:24:36;;;;;;;12.90;6.80;;;19.90;99.90;;;;;;5065290;28;20761;-74
2021/06/11 04:27:05;;;;;;;15.13;7.00;;;20.00;99.90;;;;;;5064725;28;20302;-74
2021/06/11 04:29:32;;;;;;;15.40;6.77;;;19.90;99.90;;;;;;5090226;28;20201;-73
2021/06/11 04:31:59;;;;;;;13.33;7.00;;;20.00;99.90;;;;;;5060037;28;20245;-71
2021/06/11 04:34:26;;;;;;;12.23;7.10;;;20.10;99.90;;;;;;5064154;28;20290;-74
2021/06/11 04:36:54;;;;;;;12.27;6.43;;;20.10;99.90;;;;;;5062697;28;20187;-74
2021/06/11 04:39:21;;;;;;;18.33;6.90;;;20.10;99.90;;;;;;5063354;28;20191;-73
2021/06/11 04:41:48;;;;;;;14.73;6.30;;;20.20;99.90;;;;;;5056950;28;20195;-73
2021/06/11 04:44:14;;;;;;;18.47;7.20;;;20.30;99.90;;;;;;5064184;28;20615;-73
2021/06/11 04:46:40;;;;;;;12.87;6.53;;;20.30;99.90;;;;;;5043109;28;20180;-72
2021/06/11 04:49:07;;;;;;;12.63;6.53;;;20.20;99.90;;;;;;5061115;28;20198;-72
2021/06/11 04:51:37;;;;;;;17.23;6.70;;;20.40;99.90;;;;;;5060947;28;20270;-73
2021/06/11 04:54:04;;;;;;;16.47;6.50;;;20.30;99.90;;;;;;5062113;28;20301;-72
2021/06/11 04:56:31;;;;;;;16.93;7.20;;;20.40;99.90;;;;;;5064611;28;20191;-73
2021/06/11 04:58:59;;;;;;;11.63;6.53;;;20.40;99.90;;;;;;5057522;28;20249;-72
2021/06/11 05:01:27;;;;;;;19.93;6.50;;;20.40;99.90;;;;;;5063593;28;20364;-72
2021/06/11 05:03:53;;;;;;;18.27;6.90;;;20.60;99.90;;;;;;5063326;28;20185;-71
2021/06/11 05:06:20;;;;;;;15.57;6.77;;;20.70;99.90;;;;;;5063296;28;21182;-72
2021/06/11 05:08:46;;;;;;;14.23;6.77;;;20.90;99.90;;;;;;5062292;28;20805;-72
2021/06/11 05:11:13;;;;;;;14.80;6.80;;;20.90;99.90;;;;;;5062999;28;20282;-72
2021/06/11 05:13:39;;;;;;;14.03;6.13;;;21.00;99.90;;;;;;5061336;28;20227;-72
2021/06/11 05:16:06;;;;;;;17.70;6.87;;;20.90;99.90;;;;;;5057803;28;20191;-72
2021/06/11 05:18:32;;;;;;;15.20;7.07;;;20.90;99.90;;;;;;5062772;28;20198;-71
2021/06/11 05:20:59;;;;;;;15.67;6.47;;;21.00;99.90;;;;;;5057582;28;20679;-72
2021/06/11 05:23:26;;;;;;;12.30;6.40;;;21.00;99.90;;;;;;5060957;28;20199;-73
2021/06/11 05:25:53;;;;;;;12.63;6.30;;;21.00;99.90;;;;;;5060884;28;20206;-72
2021/06/11 05:28:22;;;;;;;11.37;6.50;;;21.10;99.90;;;;;;5065851;28;20187;-72
2021/06/11 05:30:50;;;;;;;18.23;6.70;;;21.10;99.90;;;;;;5061552;28;20193;-72
2021/06/11 05:33:17;;;;;;;15.83;6.57;;;21.20;99.90;;;;;;5056059;28;20206;-70
2021/06/11 05:35:43;;;;;;;19.33;7.03;;;21.30;99.90;;;;;;5047218;28;20324;-71
2021/06/11 05:38:12;;;;;;;10.67;6.63;;;21.40;99.90;;;;;;5059062;28;20248;-70
2021/06/11 05:40:40;;;;;;;15.63;6.10;;;21.50;99.90;;;;;;5060725;28;20301;-70
2021/06/11 05:43:07;;;;;;;16.40;6.47;;;21.50;99.90;;;;;;5059584;28;20179;-70
2021/06/11 05:45:34;;;;;;;10.27;6.07;;;21.50;99.90;;;;;;5059879;28;20190;-71
2021/06/11 05:48:02;;;;;;;11.70;6.47;;;21.60;99.90;;;;;;5061896;28;20187;-71
2021/06/11 05:50:29;;;;;;;20.27;6.97;;;21.60;99.90;;;;;;5059831;28;20199;-69
2021/06/11 05:52:57;;;;;;;12.37;6.57;;;21.70;99.90;;;;;;5058875;28;20785;-73
2021/06/11 05:55:25;;;;;;;9.67;6.07;;;21.80;99.90;;;;;;5041830;28;20234;-74
2021/06/11 05:57:52;;;;;;;13.50;6.67;;;21.90;99.90;;;;;;5071804;28;20195;-73
2021/06/11 06:00:20;;;;;;;16.83;6.83;;;22.00;99.90;;;;;;5059362;28;20216;-74
2021/06/11 06:02:46;;;;;;;15.63;6.03;;;22.10;99.90;;;;;;5047429;28;20297;-74
2021/06/11 06:05:13;;;;;;;12.40;6.17;;;22.10;99.90;;;;;;5062244;28;20219;-74
2021/06/11 06:07:39;;;;;;;10.50;5.80;;;22.00;99.90;;;;;;5055421;28;20792;-70
2021/06/11 06:10:07;;;;;;;14.53;6.33;;;22.00;99.90;;;;;;5061049;28;20983;-72
2021/06/11 06:12:34;;;;;;;12.20;6.63;;;22.10;99.90;;;;;;5059009;28;20195;-72
2021/06/11 06:15:02;;;;;;;12.90;6.67;;;22.10;99.90;;;;;;5062574;28;20255;-71
2021/06/11 06:17:34;;;;;;;14.10;6.37;;;22.20;99.90;;;;;;5062008;28;20249;-72
2021/06/11 06:20:02;;;;;;;13.70;6.27;;;22.30;99.90;;;;;;5057176;28;20645;-72
2021/06/11 06:22:29;;;;;;;17.10;6.57;;;22.50;99.90;;;;;;5056287;28;20286;-72
2021/06/11 06:24:55;;;;;;;11.43;5.97;;;22.70;99.90;;;;;;5062359;28;20183;-70
2021/06/11 06:27:21;;;;;;;11.03;6.17;;;22.60;99.90;;;;;;5062330;28;20295;-73
2021/06/11 06:29:48;;;;;;;13.47;6.03;;;22.60;99.90;;;;;;5060580;28;20194;-73
2021/06/11 06:32:15;;;;;;;12.40;6.17;;;22.70;99.90;;;;;;5056100;28;20206;-73
2021/06/11 06:34:41;;;;;;;15.10;6.60;;;23.00;99.90;;;;;;5058762;28;20670;-71
2021/06/11 06:37:10;;;;;;;11.60;5.70;;;23.00;99.90;;;;;;5057558;28;20197;-72
2021/06/11 06:39:38;;;;;;;10.67;5.57;;;23.10;99.90;;;;;;5058373;28;21580;-71
2021/06/11 06:42:08;;;;;;;9.43;5.87;;;23.10;99.90;;;;;;5057908;28;20191;-72
2021/06/11 06:44:36;;;;;;;11.47;6.37;;;23.00;99.90;;;;;;5037069;28;20210;-73
2021/06/11 06:47:04;;;;;;;13.67;6.33;;;22.80;99.90;;;;;;5058164;28;20278;-70
2021/06/11 06:49:33;;;;;;;10.07;5.70;;;22.80;99.90;;;;;;5056962;28;20248;-74
2021/06/11 06:52:00;;;;;;;16.63;6.53;;;23.00;99.90;;;;;;5053862;28;20206;-74
2021/06/11 06:54:26;;;;;;;15.27;6.73;;;23.00;99.90;;;;;;5052509;28;20868;-72
2021/06/11 06:56:53;;;;;;;12.80;6.57;;;23.10;99.90;;;;;;5058702;28;20190;-73
2021/06/11 06:59:22;;;;;;;12.03;5.70;;;23.20;99.90;;;;;;5056562;28;20218;-74
2021/06/11 07:01:49;;;;;;;14.33;6.30;;;23.40;99.90;;;;;;5036127;28;20195;-73
2021/06/11 07:04:18;;;;;;;14.43;6.23;;;23.60;99.90;;;;;;5043376;28;20742;-73
2021/06/11 07:06:49;;;;;;;13.23;5.23;;;23.60;99.90;;;;;;5059033;28;20194;-73
2021/06/11 07:09:17;;;;;;;14.53;5.70;;;23.70;99.90;;;;;;5050341;28;20324;-73
2021/06/11 07:11:47;;;;;;;15.90;5.77;;;23.80;99.90;;;;;;5041598;28;20629;-72
2021/06/11 07:14:18;;;;;;;14.77;6.73;;;23.60;99.90;;;;;;5055794;28;20187;-73
2021/06/11 07:16:45;;;;;;;11.87;6.00;;;23.40;99.90;;;;;;5057682;28;20274;-73
2021/06/11 07:19:12;;;;;;;16.17;6.03;;;23.20;99.90;;;;;;5064645;28;20941;-73
2021/06/11 07:21:38;;;;;;;9.90;5.80;;;23.20;99.90;;;;;;5064216;28;20305;-72
2021/06/11 07:24:06;;;;;;;15.17;6.27;;;23.30;99.90;;;;;;5084766;28;20198;-73
2021/06/11 07:26:33;;;;;;;14.83;6.50;;;23.50;99.90;;;;;;5059587;28;20281;-73
2021/06/11 07:28:59;;;;;;;11.57;6.13;;;23.60;99.90;;;;;;5057942;28;20207;-72
2021/06/11 07:31:27;;;;;;;15.20;5.30;;;23.70;99.90;;;;;;5062597;28;20192;-73
2021/06/11 07:33:55;;;;;;;14.63;5.33;;;23.80;99.90;;;;;;5052896;28;20329;-72
2021/06/11 07:36:21;;;;;;;13.00;6.53;;;23.70;99.90;;;;;;5062378;28;20218;-71
2021/06/11 07:38:48;;;;;;;11.67;5.83;;;23.80;99.90;;;;;;5059363;28;20191;-73
2021/06/11 07:41:14;;;;;;;18.83;6.47;;;24.00;99.90;;;;;;5055365;28;20222;-74
2021/06/11 07:43:42;;;;;;;13.37;6.10;;;24.00;99.90;;;;;;5059187;28;20665;-72
2021/06/11 07:46:08;;;;;;;11.23;5.67;;;24.10;99.90;;;;;;5060556;28;20238;-74
2021/06/11 07:48:34;;;;;;;15.43;5.70;;;24.20;99.90;;;;;;5056870;28;20187;-75
2021/06/11 07:51:01;;;;;;;19.87;6.63;;;24.30;99.90;;;;;;5059957;28;20245;-74
2021/06/11 07:53:27;;;;;;;13.43;5.22;;;24.30;99.90;;;;;;5044378;28;20195;-73
2021/06/11 07:55:55;;;;;;;17.95;5.75;;;24.50;99.90;;;;;;5062991;28;20868;-70
2021/06/11 07:58:21;;;;;;;11.68;5.32;;;24.50;99.90;;;;;;5059391;28;20203;-74
2021/06/11 08:00:47;;;;;;;12.20;5.53;;;24.80;99.90;;;;;;5061529;28;20302;-74
2021/06/11 08:03:16;;;;;;;12.23;5.73;;;24.80;99.90;;;;;;5064238;28;20206;-72
2021/06/11 08:05:43;;;;;;;16.55;5.65;;;24.80;99.90;;;;;;5054772;28;20214;-72
2021/06/11 08:08:09;;;;;;;11.80;6.00;;;24.70;99.90;;;;;;5088789;28;20221;-75
2021/06/11 08:10:36;;;;;;;15.93;5.40;;;24.60;99.90;;;;;;5065443;28;20611;-74
2021/06/11 08:13:07;;;;;;;10.93;5.68;;;24.90;99.90;;;;;;5059820;28;20213;-70
2021/06/11 08:15:34;;;;;;;10.73;5.90;;;25.00;99.90;;;;;;5057296;28;21190;-72
2021/06/11 08:18:03;;;;;;;12.43;6.78;;;25.00;99.90;;;;;;5059716;28;20187;-71
2021/06/11 08:20:29;;;;;;;15.63;5.93;;;24.90;99.90;;;;;;5069312;28;20213;-73
2021/06/11 08:22:56;;;;;;;14.63;5.88;;;24.80;99.90;;;;;;5045376;28;20647;-73
2021/06/11 08:25:23;;;;;;;16.83;5.45;;;24.70;99.90;;;;;;5058465;28;20187;-73
2021/06/11 08:27:51;;;;;;;11.82;5.78;;;24.60;99.90;;;;;;5057492;28;20191;-74
2021/06/11 08:30:18;;;;;;;19.40;5.67;;;24.60;99.90;;;;;;5063395;28;21038;-74
2021/06/11 08:32:45;;;;;;;16.13;5.80;;;24.50;99.90;;;;;;5058645;28;21043;-74
2021/06/11 08:35:12;;;;;;;8.75;5.03;;;24.60;99.90;;;;;;5061906;28;20202;-74
2021/06/11 08:37:38;;;;;;;13.55;5.40;;;24.80;99.90;;;;;;5060617;28;20218;-73
2021/06/11 08:40:05;;;;;;;12.10;5.07;;;25.00;99.90;;;;;;5061265;28;20816;-75
2021/06/11 08:42:32;;;;;;;12.27;5.47;;;25.10;99.90;;;;;;5045666;28;20320;-75
2021/06/11 08:45:07;;;;;;;9.77;5.17;;;25.10;99.90;;;;;;5046253;28;20631;-74
2021/06/11 08:47:34;;;;;;;11.80;5.25;;;25.20;99.90;;;;;;5064902;28;20296;-73
2021/06/11 08:50:02;;;;;;;11.82;5.20;;;25.30;99.90;;;;;;5053527;28;20187;-73
2021/06/11 08:52:29;;;;;;;12.02;5.13;;;25.30;99.90;;;;;;5056008;28;20217;-71
2021/06/11 08:54:57;;;;;;;11.05;5.25;;;25.50;99.90;;;;;;5060772;28;20186;-74
2021/06/11 08:57:25;;;;;;;12.18;5.28;;;25.50;99.90;;;;;;5041068;28;20278;-74
2021/06/11 08:59:53;;;;;;;11.30;5.10;;;25.40;99.90;;;;;;5041203;28;20265;-71
2021/06/11 09:02:23;;;;;;;9.20;5.70;;;25.30;99.90;;;;;;5042638;28;20191;-70
2021/06/11 09:04:54;;;;;;;10.27;5.33;;;25.10;99.90;;;;;;5041600;28;20209;-72
2021/06/11 09:07:32;;;;;;;15.45;6.03;;;25.00;99.90;;;;;;5056972;28;20264;-72
2021/06/11 09:10:08;;;;;;;12.40;5.20;;;25.10;99.90;;;;;;5058811;28;20604;-73
2021/06/11 09:12:42;;;;;;;10.27;4.80;;;25.60;99.90;;;;;;5054445;28;20197;-73
2021/06/11 09:15:17;;;;;;;11.65;4.70;;;25.90;99.90;;;;;;5058666;28;20912;-69
2021/06/11 09:17:50;;;;;;;14.30;4.82;;;26.10;99.90;;;;;;5060080;28;20266;-74
2021/06/11 09:20:23;;;;;;;17.77;5.65;;;26.20;99.90;;;;;;5057112;28;20606;-73
2021/06/11 09:22:55;;;;;;;11.25;4.63;;;26.40;99.90;;;;;;5057557;28;20264;-72
2021/06/11 09:25:25;;;;;;;19.00;5.95;;;26.70;99.90;;;;;;5051475;28;20514;-71
2021/06/11 09:28:01;;;;;;;21.98;6.00;;;26.80;99.90;;;;;;5055932;28;20574;-72
2021/06/11 09:30:38;;;;;;;17.33;5.20;;;26.70;99.90;;;;;;5057803;28;20190;-72
2021/06/11 09:33:17;;;;;;;13.73;4.82;;;26.90;99.90;;;;;;5054043;28;20251;-73
2021/06/11 09:35:51;;;;;;;11.95;5.00;;;26.70;99.90;;;;;;5057444;28;20187;-71
2021/06/11 09:38:28;;;;;;;10.88;4.47;;;26.60;99.90;;;;;;5041681;28;20198;-73
2021/06/11 09:40:57;;;;;;;10.77;4.40;;;26.90;99.90;;;;;;5064003;28;20214;-73
2021/06/11 09:43:32;;;;;;;10.25;4.88;;;27.20;99.90;;;;;;5055340;28;20197;-73
2021/06/11 09:46:12;;;;;;;18.55;5.28;;;27.00;99.90;;;;;;5040767;28;20197;-74
2021/06/11 09:48:51;;;;;;;7.70;4.65;;;26.90;99.90;;;;;;5063485;28;20713;-72
2021/06/11 09:51:22;;;;;;;16.27;4.68;;;26.70;99.90;;;;;;5043961;28;20850;-74
2021/06/11 09:53:50;;;;;;;12.32;5.30;;;27.20;99.90;;;;;;5057371;28;20221;-70
2021/06/11 09:56:29;;;;;;;10.27;5.38;;;27.10;99.90;;;;;;5058085;28;20195;-72
2021/06/11 09:58:59;;;;;;;15.13;5.32;;;27.00;99.90;;;;;;5059019;28;20224;-73
2021/06/11 10:01:26;;;;;;;11.70;5.97;;;26.70;99.90;;;;;;5056272;28;20249;-75
2021/06/11 10:03:58;;;;;;;12.07;6.30;;;26.70;99.90;;;;;;5058486;28;20182;-73
2021/06/11 10:06:27;;;;;;;10.98;6.32;;;27.00;99.90;;;;;;5057850;28;20211;-75
2021/06/11 10:08:53;;;;;;;11.88;5.72;;;27.30;99.90;;;;;;5058107;28;20195;-72
2021/06/11 10:11:25;;;;;;;15.88;5.82;;;27.70;99.90;;;;;;5056421;28;20187;-75
2021/06/11 10:13:55;;;;;;;18.45;6.38;;;27.50;99.90;;;;;;5055756;28;20248;-73
2021/06/11 10:16:22;;;;;;;18.27;6.43;;;27.40;99.90;;;;;;5057583;28;20194;-73
2021/06/11 10:18:50;;;;;;;12.90;6.63;;;27.30;99.90;;;;;;5058662;28;20269;-73
2021/06/11 10:21:16;;;;;;;9.88;6.57;;;27.20;99.90;;;;;;5044989;28;20208;-74
2021/06/11 10:23:44;;;;;;;17.27;7.57;;;27.30;99.90;;;;;;5062078;28;20186;-74
2021/06/11 10:26:13;;;;;;;14.00;6.70;;;27.20;99.90;;;;;;5055170;28;20199;-70
2021/06/11 10:28:48;;;;;;;14.23;5.95;;;27.00;99.90;;;;;;5042874;28;20974;-74
2021/06/11 10:31:23;;;;;;;11.05;5.78;;;26.90;99.90;;;;;;5043072;28;20194;-73
2021/06/11 10:34:00;;;;;;;13.82;6.20;;;26.90;99.90;;;;;;5057677;28;20226;-74
2021/06/11 10:38:57;;;;;;;12.65;6.72;;;26.60;99.90;;;;;;5060909;28;20199;-73
2021/06/11 10:41:25;;;;;;;10.63;6.25;;;26.10;99.90;;;;;;5052926;28;20227;-71
2021/06/11 10:43:52;;;;;;;18.08;6.18;;;26.30;99.90;;;;;;5053320;28;20226;-76
2021/06/11 10:46:30;;;;;;;16.10;6.80;;;26.60;99.90;;;;;;5079401;28;20183;-72
2021/06/11 10:49:00;;;;;;;11.85;6.28;;;26.70;99.90;;;;;;5054497;28;20191;-73
2021/06/11 10:51:47;;;;;;;16.02;6.18;;;26.60;99.90;;;;;;5054193;28;20776;-71
2021/06/11 10:54:16;;;;;;;10.45;5.68;;;26.60;99.90;;;;;;5052682;28;20195;-71
2021/06/11 10:57:02;;;;;;;17.02;6.60;;;26.50;99.90;;;;;;5059170;28;20203;-71
2021/06/11 10:59:45;;;;;;;14.13;6.28;;;26.50;99.90;;;;;;5055497;28;20226;-74
2021/06/11 11:02:14;;;;;;;14.40;5.82;;;26.30;99.90;;;;;;5056586;28;20647;-73
2021/06/11 11:04:47;;;;;;;16.55;5.65;;;26.30;99.90;;;;;;5058888;28;20289;-72
2021/06/11 11:07:29;;;;;;;14.02;5.85;;;26.30;99.90;;;;;;5059023;28;21033;-74
2021/06/11 11:10:08;;;;;;;12.90;6.03;;;26.40;99.90;;;;;;5057107;28;20187;-73
2021/06/11 11:13:05;;;;;;;9.70;5.78;;;26.70;99.90;;;;;;5058194;28;20195;-72
2021/06/11 11:15:42;;;;;;;16.02;5.88;;;26.60;99.90;;;;;;5058907;28;20672;-73
2021/06/11 11:18:22;;;;;;;14.98;6.03;;;26.60;99.90;;;;;;5047915;28;20284;-72
2021/06/11 11:20:50;;;;;;;12.35;5.40;;;26.40;99.90;;;;;;5052703;28;20222;-72
2021/06/11 11:23:24;;;;;;;11.10;5.75;;;26.30;99.90;;;;;;5055047;28;20182;-72
2021/06/11 11:25:50;;;;;;;12.73;5.95;;;26.30;99.90;;;;;;5049446;28;20210;-74
2021/06/11 11:28:18;;;;;;;12.30;5.65;;;26.10;99.90;;;;;;5051210;28;20207;-73
2021/06/11 11:30:48;;;;;;;11.35;5.90;;;26.00;99.90;;;;;;5057522;28;20187;-73
2021/06/11 11:33:16;;;;;;;14.95;5.88;;;25.90;99.90;;;;;;5052341;28;20187;-71
2021/06/11 11:35:51;;;;;;;16.65;5.60;;;25.90;99.90;;;;;;5055740;28;20608;-72
2021/06/11 11:38:17;;;;;;;15.95;5.68;;;25.90;99.90;;;;;;5061539;28;20198;-74
2021/06/11 11:40:43;;;;;;;13.18;5.68;;;25.80;99.90;;;;;;5057056;28;20234;-74
2021/06/11 11:43:11;;;;;;;12.45;5.85;;;25.90;99.90;;;;;;5059164;28;20303;-73
2021/06/11 11:45:39;;;;;;;11.13;5.70;;;25.90;99.90;;;;;;5056136;28;20187;-74
2021/06/11 11:48:07;;;;;;;8.40;5.03;;;25.90;99.90;;;;;;5061793;28;20258;-72
2021/06/11 11:50:36;;;;;;;10.30;5.45;;;26.20;99.90;;;;;;5059046;28;20195;-74
2021/06/11 11:53:03;;;;;;;11.30;5.45;;;26.30;99.90;;;;;;5056929;28;20199;-74
2021/06/11 11:55:30;;;;;;;14.18;5.80;;;26.20;99.90;;;;;;5057061;28;20225;-71
2021/06/11 11:57:57;;;;;;;9.23;5.10;;;26.10;99.90;;;;;;5054343;28;20659;-72
2021/06/11 12:00:26;;;;;;;10.55;5.43;;;25.90;99.90;;;;;;5058560;28;20229;-72
2021/06/11 12:02:56;;;;;;;8.80;5.15;;;26.10;99.90;;;;;;5059869;28;20762;-72
2021/06/11 12:05:23;;;;;;;14.43;5.28;;;26.30;99.90;;;;;;5062474;28;20227;-71
2021/06/11 12:07:49;;;;;;;10.57;4.72;;;26.20;99.90;;;;;;5063356;28;20198;-73
2021/06/11 12:10:16;;;;;;;9.05;4.60;;;26.20;99.90;;;;;;5062712;28;20205;-71
2021/06/11 12:12:42;;;;;;;16.30;5.70;;;26.30;99.90;;;;;;5045114;28;20285;-71
2021/06/11 12:15:09;;;;;;;8.18;4.78;;;26.20;99.90;;;;;;5058857;28;20659;-72
2021/06/11 12:17:35;;;;;;;13.05;6.13;;;26.30;99.90;;;;;;5058051;28;20194;-70
2021/06/11 12:20:03;;;;;;;9.20;4.53;;;26.00;99.90;;;;;;5059325;28;20214;-72
2021/06/11 12:22:30;;;;;;;11.65;4.70;;;26.30;99.90;;;;;;5076027;28;20226;-71
2021/06/11 12:24:56;;;;;;;17.08;5.28;;;26.30;99.90;;;;;;5062401;28;20179;-71
2021/06/11 12:27:22;;;;;;;10.13;4.65;;;26.30;99.90;;;;;;5065640;28;20195;-71
2021/06/11 12:29:49;;;;;;;14.40;5.15;;;26.40;99.90;;;;;;5064725;28;20199;-73
2021/06/11 12:32:15;;;;;;;9.93;4.72;;;26.40;99.90;;;;;;5052620;28;20558;-72
2021/06/11 12:34:41;;;;;;;9.85;5.53;;;26.60;99.90;;;;;;5058580;28;20196;-75
2021/06/11 12:37:08;;;;;;;13.48;5.10;;;26.70;99.90;;;;;;5061091;28;20601;-75
2021/06/11 12:39:35;;;;;;;7.80;4.30;;;26.60;99.90;;;;;;5056206;28;21413;-72
2021/06/11 12:42:18;;;;;;;12.88;4.85;;;26.70;99.90;;;;;;5061324;28;20339;-72
2021/06/11 12:44:46;;;;;;;13.50;4.70;;;26.50;99.90;;;;;;5054632;28;20193;-72
2021/06/11 12:47:13;;;;;;;12.93;5.03;;;26.70;99.90;;;;;;5042931;28;20187;-73
2021/06/11 12:49:41;;;;;;;12.65;5.00;;;26.30;99.90;;;;;;5061772;28;20195;-71
2021/06/11 12:52:09;;;;;;;10.30;4.78;;;26.30;99.90;;;;;;5058912;28;20191;-72
2021/06/11 12:54:35;;;;;;;11.82;4.20;;;26.50;99.90;;;;;;5053073;28;20278;-74